Terminal Aerodrome Forecast
Issued by NWS

Home | Current Version | Previous Version | Text Only | Print | Product List | Glossary On
Versions: 1 2 3 4 5 6 7 8 9 10 11 12
000
FTUS44 KTSA 281700
TAFRVS
TAF
KRVS 281728Z 2818/2918 19015G23KT P6SM SKC
     FM290000 17010KT P6SM SKC
     FM291500 19015G23KT P6SM SCT250=

USA.gov is the U.S. government's official web portal to all federal, state and local government web resources and services.